sensor_id;sensor_type;location;lat;lon;timestamp;pressure;altitude;pressure_sealevel;temperature;humidity
29121;BME280;16191;49.548;8.658;2023-05-27T00:01:08;101216.34;;;15.92;59.29
29121;BME280;16191;49.548;8.658;2023-05-27T00:03:35;101215.50;;;15.92;59.58
29121;BME280;16191;49.548;8.658;2023-05-27T00:06:02;101216.75;;;15.83;59.18
29121;BME280;16191;49.548;8.658;2023-05-27T00:08:28;101211.44;;;15.85;59.25
29121;BME280;16191;49.548;8.658;2023-05-27T00:10:55;101207.88;;;15.86;58.98
29121;BME280;16191;49.548;8.658;2023-05-27T00:13:21;101210.81;;;15.80;59.03
29121;BME280;16191;49.548;8.658;2023-05-27T00:15:48;101211.75;;;15.79;59.14
29121;BME280;16191;49.548;8.658;2023-05-27T00:18:15;101206.19;;;15.66;59.68
29121;BME280;16191;49.548;8.658;2023-05-27T00:20:42;101215.56;;;15.71;59.31
29121;BME280;16191;49.548;8.658;2023-05-27T00:23:09;101204.47;;;15.65;59.56
29121;BME280;16191;49.548;8.658;2023-05-27T00:25:35;101215.63;;;15.51;60.23
29121;BME280;16191;49.548;8.658;2023-05-27T00:28:02;101210.28;;;15.53;59.96
29121;BME280;16191;49.548;8.658;2023-05-27T00:30:29;101205.16;;;15.50;60.06
29121;BME280;16191;49.548;8.658;2023-05-27T00:32:55;101198.78;;;15.55;60.09
29121;BME280;16191;49.548;8.658;2023-05-27T00:35:22;101208.13;;;15.42;60.42
29121;BME280;16191;49.548;8.658;2023-05-27T00:37:49;101210.50;;;15.48;60.08
29121;BME280;16191;49.548;8.658;2023-05-27T00:40:20;101207.91;;;15.28;60.78
29121;BME280;16191;49.548;8.658;2023-05-27T00:42:47;101211.47;;;15.46;60.34
29121;BME280;16191;49.548;8.658;2023-05-27T00:45:14;101214.44;;;15.38;61.28
29121;BME280;16191;49.548;8.658;2023-05-27T00:47:41;101218.50;;;15.45;60.41
29121;BME280;16191;49.548;8.658;2023-05-27T00:50:08;101218.84;;;15.37;60.93
29121;BME280;16191;49.548;8.658;2023-05-27T00:52:35;101215.53;;;15.34;61.17
29121;BME280;16191;49.548;8.658;2023-05-27T00:55:02;101217.78;;;15.41;60.59
29121;BME280;16191;49.548;8.658;2023-05-27T00:57:29;101215.41;;;15.37;60.95
29121;BME280;16191;49.548;8.658;2023-05-27T00:59:56;101220.47;;;15.21;61.81
29121;BME280;16191;49.548;8.658;2023-05-27T01:02:22;101206.19;;;15.27;61.96
29121;BME280;16191;49.548;8.658;2023-05-27T01:04:50;101204.69;;;15.21;62.20
29121;BME280;16191;49.548;8.658;2023-05-27T01:10:46;101202.69;;;15.07;63.59
29121;BME280;16191;49.548;8.658;2023-05-27T01:13:36;101215.03;;;15.05;63.20
29121;BME280;16191;49.548;8.658;2023-05-27T01:16:27;101202.09;;;15.01;63.43
29121;BME280;16191;49.548;8.658;2023-05-27T01:19:25;101195.06;;;15.01;62.85
29121;BME280;16191;49.548;8.658;2023-05-27T01:22:14;101182.34;;;14.92;63.11
29121;BME280;16191;49.548;8.658;2023-05-27T01:25:02;101192.13;;;14.89;63.25
29121;BME280;16191;49.548;8.658;2023-05-27T01:27:29;101183.41;;;14.88;61.66
29121;BME280;16191;49.548;8.658;2023-05-27T01:29:55;101191.41;;;14.85;61.42
29121;BME280;16191;49.548;8.658;2023-05-27T01:32:53;101181.50;;;14.92;60.82
29121;BME280;16191;49.548;8.658;2023-05-27T01:35:30;101184.19;;;14.90;59.80
29121;BME280;16191;49.548;8.658;2023-05-27T01:38:10;101183.41;;;14.88;59.95
29121;BME280;16191;49.548;8.658;2023-05-27T01:40:39;101183.41;;;14.88;59.09
29121;BME280;16191;49.548;8.658;2023-05-27T01:43:07;101176.31;;;14.90;59.27
29121;BME280;16191;49.548;8.658;2023-05-27T01:45:34;101178.06;;;14.90;58.98
29121;BME280;16191;49.548;8.658;2023-05-27T01:48:01;101180.03;;;14.85;59.33
29121;BME280;16191;49.548;8.658;2023-05-27T01:50:28;101181.88;;;14.83;58.67
29121;BME280;16191;49.548;8.658;2023-05-27T01:52:57;101187.88;;;14.86;57.81
29121;BME280;16191;49.548;8.658;2023-05-27T01:55:24;101187.94;;;14.85;58.33
29121;BME280;16191;49.548;8.658;2023-05-27T01:57:51;101194.94;;;14.84;58.16
29121;BME280;16191;49.548;8.658;2023-05-27T02:00:18;101191.41;;;14.85;58.20
29121;BME280;16191;49.548;8.658;2023-05-27T02:02:44;101192.44;;;14.81;57.82
29121;BME280;16191;49.548;8.658;2023-05-27T02:05:16;101190.56;;;14.85;57.41
29121;BME280;16191;49.548;8.658;2023-05-27T02:07:43;101185.63;;;14.77;58.15
29121;BME280;16191;49.548;8.658;2023-05-27T02:10:10;101184.69;;;14.78;57.86
29121;BME280;16191;49.548;8.658;2023-05-27T02:12:36;101184.69;;;14.78;57.77
29121;BME280;16191;49.548;8.658;2023-05-27T02:15:04;101188.06;;;14.61;58.86
29121;BME280;16191;49.548;8.658;2023-05-27T02:17:31;101185.38;;;14.63;58.96
29121;BME280;16191;49.548;8.658;2023-05-27T02:19:58;101186.41;;;14.59;58.45
29121;BME280;16191;49.548;8.658;2023-05-27T02:22:25;101183.59;;;14.63;58.19
29121;BME280;16191;49.548;8.658;2023-05-27T02:24:51;101181.94;;;14.61;58.10
29121;BME280;16191;49.548;8.658;2023-05-27T02:27:18;101185.44;;;14.61;58.02
29121;BME280;16191;49.548;8.658;2023-05-27T02:29:44;101174.38;;;14.53;58.37
29121;BME280;16191;49.548;8.658;2023-05-27T02:32:11;101181.63;;;14.48;58.96
29121;BME280;16191;49.548;8.658;2023-05-27T02:34:40;101172.28;;;14.41;58.90
29121;BME280;16191;49.548;8.658;2023-05-27T02:37:07;101183.00;;;14.35;58.88
29121;BME280;16191;49.548;8.658;2023-05-27T02:39:34;101177.53;;;14.41;58.95
29121;BME280;16191;49.548;8.658;2023-05-27T02:42:00;101181.34;;;14.32;59.46
29121;BME280;16191;49.548;8.658;2023-05-27T02:44:27;101171.06;;;14.28;59.27
29121;BME280;16191;49.548;8.658;2023-05-27T02:46:54;101173.88;;;14.23;59.31
29121;BME280;16191;49.548;8.658;2023-05-27T02:49:20;101180.16;;;14.19;59.12
29121;BME280;16191;49.548;8.658;2023-05-27T02:51:48;101176.06;;;14.12;59.29
29121;BME280;16191;49.548;8.658;2023-05-27T02:54:15;101173.72;;;14.06;59.29
29121;BME280;16191;49.548;8.658;2023-05-27T02:56:41;101170.75;;;14.14;59.60
29121;BME280;16191;49.548;8.658;2023-05-27T02:59:08;101173.38;;;14.14;59.12
29121;BME280;16191;49.548;8.658;2023-05-27T03:01:34;101164.38;;;13.99;58.81
29121;BME280;16191;49.548;8.658;2023-05-27T03:04:02;101157.47;;;13.96;59.24
29121;BME280;16191;49.548;8.658;2023-05-27T03:06:30;101164.66;;;13.91;59.35
29121;BME280;16191;49.548;8.658;2023-05-27T03:08:58;101160.03;;;13.98;58.84
29121;BME280;16191;49.548;8.658;2023-05-27T03:11:24;101165.59;;;13.90;58.82
29121;BME280;16191;49.548;8.658;2023-05-27T03:13:52;101165.16;;;14.01;58.69
29121;BME280;16191;49.548;8.658;2023-05-27T03:16:19;101162.66;;;13.98;58.79
29121;BME280;16191;49.548;8.658;2023-05-27T03:18:46;101176.88;;;13.92;58.52
29121;BME280;16191;49.548;8.658;2023-05-27T03:21:13;101163.09;;;13.87;58.63
29121;BME280;16191;49.548;8.658;2023-05-27T03:23:42;101169.44;;;13.82;59.52
29121;BME280;16191;49.548;8.658;2023-05-27T03:26:08;101160.84;;;13.78;59.29
29121;BME280;16191;49.548;8.658;2023-05-27T03:28:35;101160.03;;;13.76;59.75
29121;BME280;16191;49.548;8.658;2023-05-27T03:31:02;101165.47;;;13.71;59.68
29121;BME280;16191;49.548;8.658;2023-05-27T03:33:47;101161.38;;;13.64;60.00
29121;BME280;16191;49.548;8.658;2023-05-27T03:36:13;101161.94;;;13.72;59.03
29121;BME280;16191;49.548;8.658;2023-05-27T03:38:41;101159.75;;;13.62;59.50
29121;BME280;16191;49.548;8.658;2023-05-27T03:41:07;101157.81;;;13.65;59.46
29121;BME280;16191;49.548;8.658;2023-05-27T03:43:37;101162.00;;;13.71;59.88
29121;BME280;16191;49.548;8.658;2023-05-27T03:46:03;101157.72;;;13.68;59.52
29121;BME280;16191;49.548;8.658;2023-05-27T03:48:30;101151.06;;;13.60;59.73
29121;BME280;16191;49.548;8.658;2023-05-27T03:50:57;101156.25;;;13.61;59.62
29121;BME280;16191;49.548;8.658;2023-05-27T03:53:23;101154.94;;;13.50;60.49
29121;BME280;16191;49.548;8.658;2023-05-27T03:55:50;101162.81;;;13.50;60.44
29121;BME280;16191;49.548;8.658;2023-05-27T03:58:17;101160.94;;;13.53;60.40
29121;BME280;16191;49.548;8.658;2023-05-27T04:00:43;101163.44;;;13.56;59.82
29121;BME280;16191;49.548;8.658;2023-05-27T04:03:10;101168.81;;;13.53;60.16
29121;BME280;16191;49.548;8.658;2023-05-27T04:05:37;101167.94;;;13.53;60.32
29121;BME280;16191;49.548;8.658;2023-05-27T04:08:04;101169.16;;;13.44;60.52
29121;BME280;16191;49.548;8.658;2023-05-27T04:10:31;101165.38;;;13.51;60.06
29121;BME280;16191;49.548;8.658;2023-05-27T04:12:57;101163.63;;;13.52;60.43
29121;BME280;16191;49.548;8.658;2023-05-27T04:15:24;101167.53;;;13.42;60.24
29121;BME280;16191;49.548;8.658;2023-05-27T04:17:55;101164.69;;;13.46;60.15
29121;BME280;16191;49.548;8.658;2023-05-27T04:20:22;101169.88;;;13.48;59.84
29121;BME280;16191;49.548;8.658;2023-05-27T04:22:53;101172.44;;;13.49;59.60
29121;BME280;16191;49.548;8.658;2023-05-27T04:25:19;101164.47;;;13.52;59.31
29121;BME280;16191;49.548;8.658;2023-05-27T04:28:04;101165.38;;;13.51;59.30
29121;BME280;16191;49.548;8.658;2023-05-27T04:30:33;101164.34;;;13.55;59.81
29121;BME280;16191;49.548;8.658;2023-05-27T04:33:02;101168.91;;;13.50;60.01
29121;BME280;16191;49.548;8.658;2023-05-27T04:35:29;101166.13;;;13.55;59.58
29121;BME280;16191;49.548;8.658;2023-05-27T04:37:57;101162.44;;;13.60;59.32
29121;BME280;16191;49.548;8.658;2023-05-27T04:40:35;101166.13;;;13.55;59.90
29121;BME280;16191;49.548;8.658;2023-05-27T04:43:19;101170.19;;;13.63;59.54
29121;BME280;16191;49.548;8.658;2023-05-27T04:45:47;101170.88;;;13.67;59.14
29121;BME280;16191;49.548;8.658;2023-05-27T04:48:15;101175.97;;;13.71;58.95
29121;BME280;16191;49.548;8.658;2023-05-27T04:50:42;101170.66;;;13.73;58.90
29121;BME280;16191;49.548;8.658;2023-05-27T04:53:09;101169.78;;;13.72;59.14
29121;BME280;16191;49.548;8.658;2023-05-27T04:55:35;101174.00;;;13.77;59.03
29121;BME280;16191;49.548;8.658;2023-05-27T04:58:04;101167.75;;;13.81;58.36
29121;BME280;16191;49.548;8.658;2023-05-27T05:00:31;101170.03;;;13.88;57.98
29121;BME280;16191;49.548;8.658;2023-05-27T05:03:21;101168.22;;;13.90;57.93
29121;BME280;16191;49.548;8.658;2023-05-27T05:05:52;101166.16;;;13.98;57.99
29121;BME280;16191;49.548;8.658;2023-05-27T05:08:20;101168.59;;;14.03;58.62
29121;BME280;16191;49.548;8.658;2023-05-27T05:10:48;101166.72;;;14.06;58.04
29121;BME280;16191;49.548;8.658;2023-05-27T05:13:18;101170.88;;;14.11;57.55
29121;BME280;16191;49.548;8.658;2023-05-27T05:15:45;101168.03;;;14.17;57.63
29121;BME280;16191;49.548;8.658;2023-05-27T05:18:12;101162.66;;;14.20;58.95
29121;BME280;16191;49.548;8.658;2023-05-27T05:20:39;101175.72;;;14.21;58.88
29121;BME280;16191;49.548;8.658;2023-05-27T05:23:08;101174.78;;;14.22;58.67
29121;BME280;16191;49.548;8.658;2023-05-27T05:25:36;101174.63;;;14.27;58.18
29121;BME280;16191;49.548;8.658;2023-05-27T05:28:06;101173.38;;;14.35;58.01
29121;BME280;16191;49.548;8.658;2023-05-27T05:30:34;101175.94;;;14.37;57.22
29121;BME280;16191;49.548;8.658;2023-05-27T05:33:00;101172.31;;;14.39;58.19
29121;BME280;16191;49.548;8.658;2023-05-27T05:35:30;101175.13;;;14.35;58.57
29121;BME280;16191;49.548;8.658;2023-05-27T05:38:11;101179.78;;;14.50;58.37
29121;BME280;16191;49.548;8.658;2023-05-27T05:40:38;101169.06;;;14.55;58.04
29121;BME280;16191;49.548;8.658;2023-05-27T05:43:14;101174.72;;;14.66;57.89
29121;BME280;16191;49.548;8.658;2023-05-27T05:45:41;101177.09;;;14.72;58.16
29121;BME280;16191;49.548;8.658;2023-05-27T05:48:09;101180.09;;;14.83;58.17
29121;BME280;16191;49.548;8.658;2023-05-27T05:50:39;101182.00;;;14.80;57.88
29121;BME280;16191;49.548;8.658;2023-05-27T05:53:06;101185.16;;;14.88;57.70
29121;BME280;16191;49.548;8.658;2023-05-27T05:55:33;101174.78;;;14.85;57.75
29121;BME280;16191;49.548;8.658;2023-05-27T05:58:00;101186.88;;;14.89;56.97
29121;BME280;16191;49.548;8.658;2023-05-27T06:00:27;101180.63;;;14.91;57.15
29121;BME280;16191;49.548;8.658;2023-05-27T06:03:09;101182.97;;;14.97;57.08
29121;BME280;16191;49.548;8.658;2023-05-27T06:05:46;101183.84;;;15.17;58.57
29121;BME280;16191;49.548;8.658;2023-05-27T06:08:13;101192.81;;;15.13;57.69
29121;BME280;16191;49.548;8.658;2023-05-27T06:10:45;101189.63;;;15.25;58.78
29121;BME280;16191;49.548;8.658;2023-05-27T06:13:12;101193.06;;;15.27;57.73
29121;BME280;16191;49.548;8.658;2023-05-27T06:15:39;101191.06;;;15.32;57.60
29121;BME280;16191;49.548;8.658;2023-05-27T06:18:08;101187.16;;;15.40;57.25
29121;BME280;16191;49.548;8.658;2023-05-27T06:20:35;101189.78;;;15.40;56.60
29121;BME280;16191;49.548;8.658;2023-05-27T06:23:02;101182.97;;;15.55;57.84
29121;BME280;16191;49.548;8.658;2023-05-27T06:25:47;101189.75;;;15.61;57.07
29121;BME280;16191;49.548;8.658;2023-05-27T06:28:14;101179.94;;;15.64;57.98
29121;BME280;16191;49.548;8.658;2023-05-27T06:30:41;101180.72;;;15.66;56.52
29121;BME280;16191;49.548;8.658;2023-05-27T06:33:10;101188.19;;;15.75;57.26
29121;BME280;16191;49.548;8.658;2023-05-27T06:35:37;101182.34;;;15.88;58.08
29121;BME280;16191;49.548;8.658;2023-05-27T06:38:05;101182.69;;;15.99;56.13
29121;BME280;16191;49.548;8.658;2023-05-27T06:40:31;101182.38;;;16.05;56.19
29121;BME280;16191;49.548;8.658;2023-05-27T06:42:58;101167.28;;;16.08;55.41
29121;BME280;16191;49.548;8.658;2023-05-27T06:45:34;101173.97;;;16.16;55.05
29121;BME280;16191;49.548;8.658;2023-05-27T06:48:22;101171.13;;;16.37;55.73
29121;BME280;16191;49.548;8.658;2023-05-27T06:50:48;101164.91;;;16.38;53.40
29121;BME280;16191;49.548;8.658;2023-05-27T06:53:15;101163.75;;;16.61;54.39
29121;BME280;16191;49.548;8.658;2023-05-27T06:55:50;101167.47;;;16.74;53.66
29121;BME280;16191;49.548;8.658;2023-05-27T06:58:40;101164.72;;;16.93;53.91
29121;BME280;16191;49.548;8.658;2023-05-27T07:01:13;101160.00;;;17.00;53.29
29121;BME280;16191;49.548;8.658;2023-05-27T07:03:45;101164.41;;;16.99;52.11
29121;BME280;16191;49.548;8.658;2023-05-27T07:06:15;101161.72;;;17.17;52.83
29121;BME280;16191;49.548;8.658;2023-05-27T07:08:47;101160.66;;;17.36;53.09
29121;BME280;16191;49.548;8.658;2023-05-27T07:11:22;101161.50;;;17.37;52.02
29121;BME280;16191;49.548;8.658;2023-05-27T07:13:52;101160.16;;;17.45;51.42
29121;BME280;16191;49.548;8.658;2023-05-27T07:16:22;101162.97;;;17.58;51.18
29121;BME280;16191;49.548;8.658;2023-05-27T07:18:49;101164.97;;;17.70;52.45
29121;BME280;16191;49.548;8.658;2023-05-27T07:21:17;101166.22;;;17.79;51.45
29121;BME280;16191;49.548;8.658;2023-05-27T07:23:44;101158.31;;;17.95;50.41
29121;BME280;16191;49.548;8.658;2023-05-27T07:26:24;101155.72;;;18.09;50.81
29121;BME280;16191;49.548;8.658;2023-05-27T07:28:52;101159.88;;;18.13;49.38
29121;BME280;16191;49.548;8.658;2023-05-27T07:31:27;101149.16;;;18.16;49.16
29121;BME280;16191;49.548;8.658;2023-05-27T07:33:58;101156.88;;;18.19;49.77
29121;BME280;16191;49.548;8.658;2023-05-27T07:36:24;101153.13;;;18.23;49.77
29121;BME280;16191;49.548;8.658;2023-05-27T07:38:51;101152.88;;;18.42;49.29
29121;BME280;16191;49.548;8.658;2023-05-27T07:41:18;101153.56;;;18.61;49.27
29121;BME280;16191;49.548;8.658;2023-05-27T07:43:45;101151.28;;;18.69;49.17
29121;BME280;16191;49.548;8.658;2023-05-27T07:46:11;101139.22;;;18.79;47.91
29121;BME280;16191;49.548;8.658;2023-05-27T07:48:39;101141.09;;;18.77;47.04
29121;BME280;16191;49.548;8.658;2023-05-27T07:51:07;101134.69;;;19.10;48.16
29121;BME280;16191;49.548;8.658;2023-05-27T07:53:35;101138.75;;;19.15;47.41
29121;BME280;16191;49.548;8.658;2023-05-27T07:56:01;101128.16;;;19.15;48.31
29121;BME280;16191;49.548;8.658;2023-05-27T07:58:29;101129.84;;;19.16;47.69
29121;BME280;16191;49.548;8.658;2023-05-27T08:01:12;101131.44;;;19.33;48.01
29121;BME280;16191;49.548;8.658;2023-05-27T08:03:45;101132.09;;;19.37;48.51
29121;BME280;16191;49.548;8.658;2023-05-27T08:06:16;101131.13;;;19.66;47.21
29121;BME280;16191;49.548;8.658;2023-05-27T08:08:57;101129.44;;;19.65;46.69
29121;BME280;16191;49.548;8.658;2023-05-27T08:11:33;101125.09;;;19.91;46.82
29121;BME280;16191;49.548;8.658;2023-05-27T08:14:18;101132.88;;;20.07;45.51
29121;BME280;16191;49.548;8.658;2023-05-27T08:17:07;101130.16;;;19.94;45.30
29121;BME280;16191;49.548;8.658;2023-05-27T08:19:53;101121.38;;;20.33;45.08
29121;BME280;16191;49.548;8.658;2023-05-27T08:22:29;101119.09;;;20.14;45.70
29121;BME280;16191;49.548;8.658;2023-05-27T08:25:15;101116.56;;;20.52;44.39
29121;BME280;16191;49.548;8.658;2023-05-27T08:27:56;101116.66;;;20.51;44.53
29121;BME280;16191;49.548;8.658;2023-05-27T08:30:57;101103.91;;;20.69;44.08
29121;BME280;16191;49.548;8.658;2023-05-27T08:33:31;101106.34;;;20.84;45.11
29121;BME280;16191;49.548;8.658;2023-05-27T08:35:58;101097.97;;;20.91;44.24
29121;BME280;16191;49.548;8.658;2023-05-27T08:38:25;101095.75;;;20.97;42.60
29121;BME280;16191;49.548;8.658;2023-05-27T08:40:59;101097.06;;;21.15;43.08
29121;BME280;16191;49.548;8.658;2023-05-27T08:43:26;101092.53;;;21.05;42.80
29121;BME280;16191;49.548;8.658;2023-05-27T08:45:53;101090.72;;;21.18;43.33
29121;BME280;16191;49.548;8.658;2023-05-27T08:48:21;101092.75;;;21.51;41.96
29121;BME280;16191;49.548;8.658;2023-05-27T08:50:47;101094.16;;;21.68;42.76
29121;BME280;16191;49.548;8.658;2023-05-27T08:53:17;101087.78;;;21.70;41.15
29121;BME280;16191;49.548;8.658;2023-05-27T08:55:45;101082.88;;;21.77;42.27
29121;BME280;16191;49.548;8.658;2023-05-27T08:58:15;101083.06;;;21.98;43.34
29121;BME280;16191;49.548;8.658;2023-05-27T09:00:46;101083.59;;;22.03;41.19
29121;BME280;16191;49.548;8.658;2023-05-27T09:03:17;101077.63;;;22.34;41.99
29121;BME280;16191;49.548;8.658;2023-05-27T09:05:44;101073.16;;;22.35;40.91
29121;BME280;16191;49.548;8.658;2023-05-27T09:08:12;101069.22;;;22.51;40.05
29121;BME280;16191;49.548;8.658;2023-05-27T09:10:40;101069.72;;;22.68;40.04
29121;BME280;16191;49.548;8.658;2023-05-27T09:13:07;101073.31;;;22.55;42.34
29121;BME280;16191;49.548;8.658;2023-05-27T09:15:34;101077.13;;;22.86;41.58
29121;BME280;16191;49.548;8.658;2023-05-27T09:18:04;101075.06;;;23.12;39.86
29121;BME280;16191;49.548;8.658;2023-05-27T09:20:31;101063.75;;;23.31;39.10
29121;BME280;16191;49.548;8.658;2023-05-27T09:23:00;101061.31;;;23.39;40.81
29121;BME280;16191;49.548;8.658;2023-05-27T09:25:28;101067.72;;;23.48;40.10
29121;BME280;16191;49.548;8.658;2023-05-27T09:27:55;101059.75;;;23.37;39.85
29121;BME280;16191;49.548;8.658;2023-05-27T09:30:24;101064.56;;;23.54;39.94
29121;BME280;16191;49.548;8.658;2023-05-27T09:33:00;101061.19;;;24.05;38.63
29121;BME280;16191;49.548;8.658;2023-05-27T09:35:27;101055.03;;;24.25;37.84
29121;BME280;16191;49.548;8.658;2023-05-27T09:37:54;101051.81;;;23.89;39.16
29121;BME280;16191;49.548;8.658;2023-05-27T09:40:20;101050.22;;;23.98;39.09
29121;BME280;16191;49.548;8.658;2023-05-27T09:42:48;101050.09;;;24.00;38.59
29121;BME280;16191;49.548;8.658;2023-05-27T09:45:20;101049.84;;;24.23;39.32
29121;BME280;16191;49.548;8.658;2023-05-27T09:47:49;101037.41;;;24.34;38.73
29121;BME280;16191;49.548;8.658;2023-05-27T09:50:17;101044.81;;;24.51;39.45
29121;BME280;16191;49.548;8.658;2023-05-27T09:52:45;101042.53;;;24.77;37.86
29121;BME280;16191;49.548;8.658;2023-05-27T09:55:30;101030.75;;;25.10;36.63
29121;BME280;16191;49.548;8.658;2023-05-27T09:57:57;101032.72;;;25.08;37.83
29121;BME280;16191;49.548;8.658;2023-05-27T10:00:23;101024.72;;;25.27;36.96
29121;BME280;16191;49.548;8.658;2023-05-27T10:02:53;101027.56;;;25.54;35.19
29121;BME280;16191;49.548;8.658;2023-05-27T10:05:20;101027.00;;;25.51;35.24
29121;BME280;16191;49.548;8.658;2023-05-27T10:07:48;101025.03;;;25.53;35.77
29121;BME280;16191;49.548;8.658;2023-05-27T10:10:18;101016.31;;;25.60;34.97
29121;BME280;16191;49.548;8.658;2023-05-27T10:12:48;101016.00;;;26.12;34.68
29121;BME280;16191;49.548;8.658;2023-05-27T10:17:54;101002.50;;;26.04;35.42
29121;BME280;16191;49.548;8.658;2023-05-27T10:20:37;101010.41;;;25.95;35.89
29121;BME280;16191;49.548;8.658;2023-05-27T10:23:15;101009.38;;;26.16;35.41
29121;BME280;16191;49.548;8.658;2023-05-27T10:25:50;101004.63;;;26.56;35.21
29121;BME280;16191;49.548;8.658;2023-05-27T10:28:31;101006.28;;;26.11;33.93
29121;BME280;16191;49.548;8.658;2023-05-27T10:31:04;101002.09;;;26.55;33.58
29121;BME280;16191;49.548;8.658;2023-05-27T10:33:37;100997.53;;;26.65;33.47
29121;BME280;16191;49.548;8.658;2023-05-27T10:36:07;100996.69;;;26.64;32.39
29121;BME280;16191;49.548;8.658;2023-05-27T10:38:35;100997.91;;;26.43;31.74
29121;BME280;16191;49.548;8.658;2023-05-27T10:41:03;100985.63;;;26.50;32.64
29121;BME280;16191;49.548;8.658;2023-05-27T10:43:32;100991.84;;;25.94;33.27
29121;BME280;16191;49.548;8.658;2023-05-27T10:46:09;100990.91;;;26.32;33.23
29121;BME280;16191;49.548;8.658;2023-05-27T10:48:38;100993.03;;;26.66;31.97
29121;BME280;16191;49.548;8.658;2023-05-27T10:51:07;100988.06;;;26.71;32.13
29121;BME280;16191;49.548;8.658;2023-05-27T10:53:35;100981.69;;;26.81;30.77
29121;BME280;16191;49.548;8.658;2023-05-27T10:56:02;100990.88;;;27.24;32.03
29121;BME280;16191;49.548;8.658;2023-05-27T10:58:33;100994.84;;;27.02;31.92
29121;BME280;16191;49.548;8.658;2023-05-27T11:01:07;100972.41;;;27.56;29.99
29121;BME280;16191;49.548;8.658;2023-05-27T11:03:33;100977.78;;;27.92;29.93
29121;BME280;16191;49.548;8.658;2023-05-27T11:06:05;100970.34;;;27.50;31.65
29121;BME280;16191;49.548;8.658;2023-05-27T11:08:33;100965.91;;;27.41;31.44
29121;BME280;16191;49.548;8.658;2023-05-27T11:11:07;100963.88;;;27.71;31.45
29121;BME280;16191;49.548;8.658;2023-05-27T11:13:35;100960.41;;;27.60;31.57
29121;BME280;16191;49.548;8.658;2023-05-27T11:16:04;100955.09;;;27.86;30.62
29121;BME280;16191;49.548;8.658;2023-05-27T11:18:38;100953.50;;;28.02;31.11
29121;BME280;16191;49.548;8.658;2023-05-27T11:21:06;100946.09;;;27.95;29.87
29121;BME280;16191;49.548;8.658;2023-05-27T11:23:53;100949.28;;;27.55;30.89
29121;BME280;16191;49.548;8.658;2023-05-27T11:26:22;100949.47;;;27.18;31.70
29121;BME280;16191;49.548;8.658;2023-05-27T11:28:56;100939.03;;;27.69;31.39
29121;BME280;16191;49.548;8.658;2023-05-27T11:31:30;100936.34;;;27.94;30.29
29121;BME280;16191;49.548;8.658;2023-05-27T11:33:57;100938.56;;;28.25;29.97
29121;BME280;16191;49.548;8.658;2023-05-27T11:36:28;100942.63;;;28.29;30.65
29121;BME280;16191;49.548;8.658;2023-05-27T11:38:59;100930.13;;;28.46;29.35
29121;BME280;16191;49.548;8.658;2023-05-27T11:41:28;100922.47;;;28.25;29.97
29121;BME280;16191;49.548;8.658;2023-05-27T11:44:06;100923.69;;;28.05;31.08
29121;BME280;16191;49.548;8.658;2023-05-27T11:46:36;100932.81;;;28.96;29.93
29121;BME280;16191;49.548;8.658;2023-05-27T11:49:04;100927.34;;;28.80;30.08
29121;BME280;16191;49.548;8.658;2023-05-27T11:51:33;100936.16;;;28.48;30.31
29121;BME280;16191;49.548;8.658;2023-05-27T11:54:01;100930.16;;;28.54;30.75
29121;BME280;16191;49.548;8.658;2023-05-27T11:56:28;100920.25;;;29.37;29.41
29121;BME280;16191;49.548;8.658;2023-05-27T11:58:56;100906.00;;;29.61;28.40
29121;BME280;16191;49.548;8.658;2023-05-27T12:01:23;100912.00;;;29.87;29.18
29121;BME280;16191;49.548;8.658;2023-05-27T12:03:49;100912.34;;;29.76;29.00
29121;BME280;16191;49.548;8.658;2023-05-27T12:06:16;100905.50;;;29.65;28.60
29121;BME280;16191;49.548;8.658;2023-05-27T12:08:43;100911.72;;;29.42;28.39
29121;BME280;16191;49.548;8.658;2023-05-27T12:11:10;100902.28;;;29.13;28.32
29121;BME280;16191;49.548;8.658;2023-05-27T12:13:36;100892.00;;;29.74;27.90
29121;BME280;16191;49.548;8.658;2023-05-27T12:16:03;100892.06;;;30.29;27.21
29121;BME280;16191;49.548;8.658;2023-05-27T12:18:30;100894.22;;;29.29;28.97
29121;BME280;16191;49.548;8.658;2023-05-27T12:20:56;100886.25;;;28.79;29.83
29121;BME280;16191;49.548;8.658;2023-05-27T12:23:23;100881.13;;;29.51;28.04
29121;BME280;16191;49.548;8.658;2023-05-27T12:25:50;100881.56;;;30.42;27.46
29121;BME280;16191;49.548;8.658;2023-05-27T12:28:17;100873.31;;;30.05;27.86
29121;BME280;16191;49.548;8.658;2023-05-27T12:30:44;100868.38;;;30.16;26.60
29121;BME280;16191;49.548;8.658;2023-05-27T12:33:10;100866.44;;;30.95;26.48
29121;BME280;16191;49.548;8.658;2023-05-27T12:35:38;100859.44;;;31.09;25.87
29121;BME280;16191;49.548;8.658;2023-05-27T12:38:04;100867.38;;;30.79;26.69
29121;BME280;16191;49.548;8.658;2023-05-27T12:40:31;100867.25;;;30.42;27.27
29121;BME280;16191;49.548;8.658;2023-05-27T12:42:57;100857.75;;;31.08;26.32
29121;BME280;16191;49.548;8.658;2023-05-27T12:45:24;100848.47;;;31.62;26.71
29121;BME280;16191;49.548;8.658;2023-05-27T12:47:52;100856.22;;;30.59;27.86
29121;BME280;16191;49.548;8.658;2023-05-27T12:50:20;100857.41;;;31.48;25.98
29121;BME280;16191;49.548;8.658;2023-05-27T12:52:47;100859.91;;;32.02;24.40
29121;BME280;16191;49.548;8.658;2023-05-27T12:55:15;100848.66;;;32.49;24.06
29121;BME280;16191;49.548;8.658;2023-05-27T12:57:44;100841.59;;;31.45;25.69
29121;BME280;16191;49.548;8.658;2023-05-27T13:00:11;100836.81;;;31.70;25.07
29121;BME280;16191;49.548;8.658;2023-05-27T13:02:38;100842.41;;;31.31;25.75
29121;BME280;16191;49.548;8.658;2023-05-27T13:05:06;100842.88;;;32.01;25.32
29121;BME280;16191;49.548;8.658;2023-05-27T13:07:33;100842.97;;;32.23;25.01
29121;BME280;16191;49.548;8.658;2023-05-27T13:10:02;100835.47;;;31.51;25.25